Time;durP1;ratioP1;P1;durP2;ratioP2;P2;SDS_P1;SDS_P2;PMS_P1;PMS_P2;Temp;Humidity;BMP_temperature;BMP_pressure;BME280_temperature;BME280_humidity;BME280_pressure;Samples;Min_cycle;Max_cycle;Signal;HPM_P1;HPM_P2
2021/03/27 00:00:18;;;;;;;4.93;2.58;;;21.00;50.40;;;;;;5084007;28;20036;-54
2021/03/27 00:03:01;;;;;;;3.13;2.33;;;20.90;50.20;;;;;;5079344;28;20087;-56
2021/03/27 00:05:34;;;;;;;4.72;2.53;;;20.90;50.20;;;;;;5080722;28;20020;-51
2021/03/27 00:08:10;;;;;;;4.97;2.80;;;20.90;50.10;;;;;;5077431;28;20072;-53
2021/03/27 00:10:47;;;;;;;3.00;2.00;;;20.90;50.10;;;;;;5083174;28;20461;-52
2021/03/27 00:13:27;;;;;;;3.83;2.58;;;20.90;50.10;;;;;;5083332;28;20817;-56
2021/03/27 00:15:59;;;;;;;3.40;2.50;;;20.90;50.00;;;;;;5082307;28;20081;-54
2021/03/27 00:19:00;;;;;;;2.88;2.40;;;20.90;50.00;;;;;;5085511;28;20024;-56
2021/03/27 00:21:38;;;;;;;3.67;2.25;;;20.90;50.00;;;;;;5084400;28;20062;-55
2021/03/27 00:24:19;;;;;;;3.55;2.55;;;20.90;50.10;;;;;;5081868;28;20140;-56
2021/03/27 00:27:09;;;;;;;4.20;2.50;;;20.90;50.60;;;;;;5083870;28;20107;-55
2021/03/27 00:29:39;;;;;;;3.35;2.30;;;20.90;49.90;;;;;;5083631;28;20102;-54
2021/03/27 00:32:10;;;;;;;4.57;2.25;;;20.90;49.90;;;;;;5083343;28;20110;-53
2021/03/27 00:34:40;;;;;;;4.07;2.25;;;20.90;49.80;;;;;;5082833;28;20024;-50
2021/03/27 00:37:12;;;;;;;6.00;2.10;;;20.90;49.80;;;;;;5081870;28;20417;-52
2021/03/27 00:39:52;;;;;;;2.88;2.22;;;20.90;49.80;;;;;;5084147;28;20491;-51
2021/03/27 00:42:20;;;;;;;3.80;2.05;;;20.90;49.80;;;;;;5079638;28;20035;-52
2021/03/27 00:44:58;;;;;;;5.20;2.25;;;20.90;49.80;;;;;;5081120;28;20125;-56
2021/03/27 00:47:28;;;;;;;3.20;2.20;;;20.80;49.80;;;;;;5082856;28;20123;-52
2021/03/27 00:50:11;;;;;;;2.97;2.38;;;20.90;49.90;;;;;;5081734;28;20450;-50
2021/03/27 00:52:41;;;;;;;3.40;2.08;;;20.80;49.80;;;;;;5083887;28;20119;-50
2021/03/27 00:55:12;;;;;;;2.78;2.08;;;20.80;49.80;;;;;;5078789;28;20068;-51
2021/03/27 00:57:41;;;;;;;3.25;2.60;;;20.80;49.80;;;;;;5079759;28;20107;-51
2021/03/27 01:00:37;;;;;;;3.50;2.47;;;20.80;49.80;;;;;;5085170;28;20097;-48
2021/03/27 01:03:11;;;;;;;3.63;2.20;;;20.80;49.80;;;;;;5082256;28;20579;-51
2021/03/27 01:05:37;;;;;;;3.47;2.10;;;20.80;50.40;;;;;;5083045;28;20040;-54
2021/03/27 01:08:07;;;;;;;4.32;2.30;;;20.80;49.80;;;;;;5076410;28;20945;-51
2021/03/27 01:10:50;;;;;;;2.55;1.90;;;20.80;49.80;;;;;;5083275;28;20047;-52
2021/03/27 01:13:23;;;;;;;4.40;2.47;;;20.80;49.80;;;;;;5078067;28;20040;-52
2021/03/27 01:15:55;;;;;;;3.17;2.30;;;20.80;49.80;;;;;;5084359;28;20058;-49
2021/03/27 01:18:27;;;;;;;4.50;2.28;;;20.80;49.80;;;;;;5082309;28;20036;-49
2021/03/27 01:20:57;;;;;;;2.60;2.17;;;20.80;49.80;;;;;;5078749;28;20023;-53
2021/03/27 01:23:25;;;;;;;3.72;2.20;;;20.80;49.90;;;;;;5076320;28;20076;-51
2021/03/27 01:25:58;;;;;;;2.55;1.83;;;20.80;49.80;;;;;;5084256;28;20085;-51
2021/03/27 01:28:32;;;;;;;2.10;1.88;;;20.80;49.80;;;;;;5083313;28;20031;-51
2021/03/27 01:31:01;;;;;;;3.95;2.22;;;20.70;49.80;;;;;;5077272;28;20029;-55
2021/03/27 01:33:35;;;;;;;3.05;2.25;;;20.70;49.90;;;;;;5076285;28;20385;-55
2021/03/27 01:36:10;;;;;;;2.95;2.00;;;20.80;49.90;;;;;;5080773;28;20065;-51
2021/03/27 01:38:43;;;;;;;2.42;2.22;;;20.70;49.90;;;;;;5082341;28;20032;-55
2021/03/27 01:41:46;;;;;;;4.13;2.20;;;20.70;49.80;;;;;;5079092;28;20040;-51
2021/03/27 01:44:44;;;;;;;3.47;1.90;;;20.70;49.90;;;;;;5036581;28;20115;-50
2021/03/27 01:47:16;;;;;;;2.80;2.05;;;20.70;49.90;;;;;;5082360;28;20029;-53
2021/03/27 01:50:13;;;;;;;2.50;2.10;;;20.70;49.90;;;;;;5084813;28;20052;-54
2021/03/27 01:53:06;;;;;;;2.22;2.00;;;20.70;49.90;;;;;;5048551;28;20036;-54
2021/03/27 01:55:56;;;;;;;2.67;1.80;;;20.70;49.90;;;;;;5079355;28;20027;-56
2021/03/27 01:59:01;;;;;;;2.03;1.58;;;20.70;49.90;;;;;;5082873;28;20059;-56
2021/03/27 02:01:37;;;;;;;2.88;1.95;;;20.70;49.90;;;;;;5081178;28;20465;-56
2021/03/27 02:04:19;;;;;;;3.45;2.50;;;20.70;50.00;;;;;;5080351;28;20457;-51
2021/03/27 02:06:54;;;;;;;2.45;1.92;;;20.70;50.00;;;;;;5082152;28;20036;-55
2021/03/27 02:09:43;;;;;;;3.85;1.85;;;20.70;50.10;;;;;;5081951;28;20028;-51
2021/03/27 02:12:32;;;;;;;2.97;2.17;;;20.70;50.00;;;;;;5083496;28;20039;-54
2021/03/27 02:15:04;;;;;;;2.83;1.90;;;20.60;50.00;;;;;;5080636;28;20458;-53
2021/03/27 02:17:29;;;;;;;2.50;2.10;;;20.70;50.00;;;;;;5081477;28;20024;-49
2021/03/27 02:20:28;;;;;;;2.90;2.22;;;20.70;50.00;;;;;;5082961;28;20035;-54
2021/03/27 02:23:07;;;;;;;2.25;1.80;;;20.60;50.60;;;;;;5080557;28;20035;-56
2021/03/27 02:25:54;;;;;;;2.00;1.80;;;20.70;50.10;;;;;;5080405;28;20029;-54
2021/03/27 02:28:48;;;;;;;3.30;1.92;;;20.60;50.00;;;;;;5075516;28;20032;-53
2021/03/27 02:31:28;;;;;;;2.35;1.75;;;20.60;50.00;;;;;;5050434;28;20400;-51
2021/03/27 02:34:11;;;;;;;2.42;1.90;;;20.60;50.00;;;;;;5079400;28;20024;-54
2021/03/27 02:36:57;;;;;;;1.85;1.65;;;20.60;50.00;;;;;;5089639;28;20028;-55
2021/03/27 02:39:36;;;;;;;2.08;1.85;;;20.60;50.00;;;;;;5081766;28;20028;-52
2021/03/27 02:42:10;;;;;;;2.40;1.73;;;20.60;49.90;;;;;;5089784;28;20024;-51
2021/03/27 02:44:54;;;;;;;2.65;2.30;;;20.60;49.90;;;;;;5094343;28;20020;-50
2021/03/27 02:47:26;;;;;;;3.30;2.00;;;20.60;49.90;;;;;;5091534;28;20028;-52
2021/03/27 02:50:34;;;;;;;2.45;2.08;;;20.60;49.90;;;;;;5086879;28;20024;-55
2021/03/27 02:53:13;;;;;;;2.53;1.98;;;20.60;49.90;;;;;;5030279;28;20041;-52
2021/03/27 02:55:52;;;;;;;2.38;1.80;;;20.60;49.90;;;;;;5010212;28;20033;-55
2021/03/27 02:58:23;;;;;;;3.40;1.88;;;20.60;50.00;;;;;;5027856;28;20053;-46
2021/03/27 03:01:17;;;;;;;2.83;2.00;;;20.60;49.90;;;;;;5031091;28;20029;-54
2021/03/27 03:04:07;;;;;;;2.55;1.70;;;20.60;49.90;;;;;;5012844;28;20783;-53
2021/03/27 03:06:50;;;;;;;2.60;1.98;;;20.60;50.00;;;;;;5014037;28;20029;-52
2021/03/27 03:09:26;;;;;;;2.03;1.70;;;20.60;49.90;;;;;;5028955;28;20030;-51
2021/03/27 03:12:15;;;;;;;2.65;1.95;;;20.60;49.90;;;;;;5016853;28;20065;-54
2021/03/27 03:14:54;;;;;;;2.67;1.88;;;20.60;50.00;;;;;;5016279;28;20060;-50
2021/03/27 03:17:52;;;;;;;2.88;1.60;;;20.60;50.00;;;;;;5023766;28;20049;-51
2021/03/27 03:20:42;;;;;;;2.10;1.75;;;20.60;49.90;;;;;;4995838;28;20459;-51
2021/03/27 03:23:33;;;;;;;2.72;1.70;;;20.60;49.80;;;;;;5031886;28;20036;-48
2021/03/27 03:26:07;;;;;;;4.22;2.17;;;20.60;50.10;;;;;;5083660;28;20437;-56
2021/03/27 03:28:52;;;;;;;3.58;2.22;;;20.60;50.00;;;;;;5085344;28;20032;-52
2021/03/27 03:32:13;;;;;;;2.03;1.73;;;20.60;50.00;;;;;;5085883;28;20358;-50
2021/03/27 03:34:57;;;;;;;2.33;1.60;;;20.70;50.30;;;;;;5081779;28;20144;-52
2021/03/27 03:37:53;;;;;;;6.72;2.00;;;20.60;50.20;;;;;;5081643;28;20031;-53
2021/03/27 03:40:58;;;;;;;1.73;1.60;;;20.60;50.20;;;;;;5086557;28;20537;-54
2021/03/27 03:43:46;;;;;;;2.40;1.30;;;20.60;50.10;;;;;;5082687;28;20107;-50
2021/03/27 03:46:30;;;;;;;2.85;1.88;;;20.60;50.20;;;;;;5081468;28;20056;-53
2021/03/27 03:49:17;;;;;;;2.40;1.65;;;20.60;50.10;;;;;;5082210;28;20028;-52
2021/03/27 03:51:45;;;;;;;1.67;1.48;;;20.60;50.10;;;;;;5084027;28;20472;-49
2021/03/27 03:54:11;;;;;;;2.58;1.63;;;20.60;50.00;;;;;;5082815;28;20081;-53
2021/03/27 03:57:00;;;;;;;2.28;1.67;;;20.60;50.10;;;;;;5078781;28;20039;-52
2021/03/27 03:59:48;;;;;;;2.05;1.65;;;20.60;50.00;;;;;;5080424;28;20078;-53
2021/03/27 04:02:26;;;;;;;2.55;1.38;;;20.50;50.00;;;;;;5085456;28;20196;-52
2021/03/27 04:04:59;;;;;;;2.63;1.90;;;20.60;50.10;;;;;;5080247;28;20174;-52
2021/03/27 04:07:42;;;;;;;1.67;1.45;;;20.50;50.00;;;;;;5082614;28;20382;-50
2021/03/27 04:10:15;;;;;;;2.45;1.52;;;20.60;50.10;;;;;;5086533;28;20442;-53
2021/03/27 04:13:04;;;;;;;2.65;2.08;;;20.60;49.90;;;;;;5077610;28;20062;-51
2021/03/27 04:15:50;;;;;;;1.50;1.30;;;20.60;49.80;;;;;;5091541;28;20115;-54
2021/03/27 04:18:47;;;;;;;4.95;1.90;;;20.60;49.80;;;;;;5092488;28;20037;-51
2021/03/27 04:21:20;;;;;;;2.20;1.63;;;20.50;49.60;;;;;;5086922;28;20040;-50
2021/03/27 04:24:03;;;;;;;1.48;1.38;;;20.50;49.70;;;;;;5074888;28;20067;-55
2021/03/27 04:26:37;;;;;;;2.60;1.40;;;20.50;49.80;;;;;;5072794;28;20031;-54
2021/03/27 04:29:18;;;;;;;3.92;1.30;;;20.50;49.50;;;;;;5088029;28;20381;-48
2021/03/27 04:32:22;;;;;;;2.83;1.50;;;20.60;49.60;;;;;;5077592;28;20511;-49
2021/03/27 04:35:17;;;;;;;1.92;1.63;;;20.60;49.60;;;;;;5041010;28;20170;-55
2021/03/27 04:38:02;;;;;;;3.28;1.35;;;20.50;49.60;;;;;;5073205;28;20029;-48
2021/03/27 04:40:49;;;;;;;5.15;1.52;;;20.60;49.50;;;;;;5086951;28;20039;-50
2021/03/27 04:43:24;;;;;;;2.17;1.50;;;20.60;49.40;;;;;;5075590;28;20043;-50
2021/03/27 04:45:58;;;;;;;3.88;1.40;;;20.60;49.60;;;;;;5086696;28;20097;-54
2021/03/27 04:48:49;;;;;;;3.67;1.35;;;20.50;49.50;;;;;;5081445;28;20024;-46
2021/03/27 04:51:37;;;;;;;4.13;1.40;;;20.50;49.30;;;;;;5088766;28;20119;-50
2021/03/27 04:54:15;;;;;;;2.38;1.10;;;20.60;49.40;;;;;;5082226;28;20048;-52
2021/03/27 04:57:04;;;;;;;6.45;1.70;;;20.60;49.30;;;;;;5091482;28;20149;-50
2021/03/27 04:59:54;;;;;;;2.78;1.13;;;20.60;49.30;;;;;;5091186;28;20506;-45
2021/03/27 05:02:32;;;;;;;3.63;1.10;;;20.60;49.20;;;;;;5074699;28;20074;-55
2021/03/27 05:05:10;;;;;;;2.08;1.48;;;20.50;49.10;;;;;;5070659;28;20355;-56
2021/03/27 05:07:46;;;;;;;3.65;1.30;;;20.60;49.10;;;;;;5071393;28;20370;-53
2021/03/27 05:10:21;;;;;;;6.63;1.15;;;20.60;49.00;;;;;;5071309;28;20019;-55
2021/03/27 05:13:04;;;;;;;3.20;1.33;;;20.70;48.90;;;;;;5087111;28;20071;-54
2021/03/27 05:16:02;;;;;;;3.20;1.02;;;20.70;48.80;;;;;;5088569;28;20024;-52
2021/03/27 05:18:47;;;;;;;2.30;1.10;;;20.70;48.70;;;;;;5064069;28;20385;-56
2021/03/27 05:21:34;;;;;;;3.20;1.38;;;20.80;48.50;;;;;;5088215;28;20020;-56
2021/03/27 05:24:25;;;;;;;5.15;1.10;;;20.80;48.40;;;;;;5076382;28;20420;-55
2021/03/27 05:27:16;;;;;;;5.95;1.10;;;20.80;48.20;;;;;;5071539;28;20028;-54
2021/03/27 05:29:59;;;;;;;1.23;1.10;;;20.80;48.10;;;;;;5072213;28;20024;-54
2021/03/27 05:32:25;;;;;;;2.35;1.15;;;20.90;48.00;;;;;;5083699;28;20039;-56
2021/03/27 05:34:52;;;;;;;3.40;1.00;;;20.90;47.90;;;;;;5072067;28;20099;-56
2021/03/27 05:37:50;;;;;;;3.22;0.80;;;20.90;47.80;;;;;;5087770;28;20028;-56
2021/03/27 05:40:43;;;;;;;2.30;0.88;;;21.00;47.70;;;;;;5081100;28;20220;-57
2021/03/27 05:43:30;;;;;;;5.05;1.10;;;21.00;47.60;;;;;;5071047;28;20146;-48
2021/03/27 05:46:12;;;;;;;1.52;0.88;;;21.00;47.50;;;;;;5079196;28;20012;-47
2021/03/27 05:48:57;;;;;;;3.03;0.93;;;21.00;47.50;;;;;;5082912;28;20052;-53
2021/03/27 05:52:00;;;;;;;1.73;1.08;;;21.10;47.50;;;;;;5071678;28;20024;-51
2021/03/27 05:54:50;;;;;;;2.17;0.80;;;21.10;47.50;;;;;;5070557;28;20490;-56
2021/03/27 05:57:54;;;;;;;1.70;0.90;;;21.10;47.60;;;;;;5079033;28;20032;-52
2021/03/27 06:00:31;;;;;;;1.90;0.88;;;21.10;47.40;;;;;;5090304;28;20481;-52
2021/03/27 06:03:15;;;;;;;2.83;0.93;;;21.10;47.40;;;;;;5090313;28;20473;-54
2021/03/27 06:06:12;;;;;;;8.02;2.20;;;21.10;47.30;;;;;;5091239;28;20024;-55
2021/03/27 06:08:51;;;;;;;4.20;0.90;;;21.10;47.30;;;;;;5076150;28;20044;-55
2021/03/27 06:11:41;;;;;;;3.22;1.10;;;21.10;47.20;;;;;;5086438;28;20066;-46
2021/03/27 06:14:28;;;;;;;1.83;0.90;;;21.10;47.20;;;;;;5088639;28;20040;-45
2021/03/27 06:17:42;;;;;;;2.85;0.77;;;21.10;47.20;;;;;;5071416;28;20028;-61
2021/03/27 06:20:20;;;;;;;2.05;0.90;;;21.10;47.20;;;;;;5043967;28;20064;-55
2021/03/27 06:22:49;;;;;;;2.15;0.70;;;21.10;47.00;;;;;;5078350;28;20040;-48
2021/03/27 06:25:39;;;;;;;1.00;0.82;;;21.10;47.00;;;;;;5077149;28;20124;-53
2021/03/27 06:28:42;;;;;;;3.58;0.90;;;21.10;47.00;;;;;;5078329;28;20025;-44
2021/03/27 06:31:36;;;;;;;1.88;0.90;;;21.10;47.00;;;;;;5090040;28;20024;-55
2021/03/27 06:34:39;;;;;;;1.77;0.80;;;21.10;47.00;;;;;;5097856;28;20032;-53
2021/03/27 06:37:25;;;;;;;1.17;0.85;;;21.10;46.80;;;;;;5079394;28;20028;-46
2021/03/27 06:40:23;;;;;;;1.50;0.80;;;21.20;46.80;;;;;;5080651;28;20029;-59
2021/03/27 06:42:55;;;;;;;1.13;1.00;;;21.20;46.70;;;;;;5097229;28;20060;-59
2021/03/27 06:46:00;;;;;;;2.90;0.95;;;21.20;46.70;;;;;;5093655;28;20020;-48
2021/03/27 06:48:35;;;;;;;1.38;0.90;;;21.20;46.80;;;;;;5078094;28;20028;-61
2021/03/27 06:51:19;;;;;;;3.92;1.05;;;21.20;46.80;;;;;;5081158;28;20595;-64
2021/03/27 06:54:03;;;;;;;2.75;0.80;;;21.10;46.80;;;;;;5096330;28;20112;-64
2021/03/27 06:56:32;;;;;;;3.55;0.70;;;21.10;46.80;;;;;;5080706;28;20358;-62
2021/03/27 06:59:09;;;;;;;3.28;1.00;;;21.10;46.60;;;;;;5087143;28;20020;-52
2021/03/27 07:02:12;;;;;;;1.90;0.63;;;21.10;46.60;;;;;;5080735;28;20039;-57
2021/03/27 07:04:50;;;;;;;5.72;0.80;;;21.10;46.60;;;;;;5091955;28;20059;-62
2021/03/27 07:07:22;;;;;;;2.25;0.70;;;21.10;46.50;;;;;;5095803;28;20082;-66
2021/03/27 07:10:00;;;;;;;3.45;0.80;;;21.10;46.60;;;;;;5081225;28;20024;-61
2021/03/27 07:13:04;;;;;;;2.53;0.82;;;21.10;46.50;;;;;;5082972;28;20044;-64
2021/03/27 07:15:58;;;;;;;5.72;0.80;;;21.10;46.30;;;;;;5077956;28;20024;-64
2021/03/27 07:18:36;;;;;;;1.58;0.68;;;21.10;46.40;;;;;;5086385;28;20040;-53
2021/03/27 07:21:36;;;;;;;3.30;1.20;;;21.10;46.30;;;;;;5084749;28;20029;-60
2021/03/27 07:24:11;;;;;;;3.08;0.70;;;21.20;46.10;;;;;;5078761;28;20051;-63
2021/03/27 07:27:02;;;;;;;4.15;0.70;;;21.20;46.00;;;;;;5079723;28;20029;-64
2021/03/27 07:30:11;;;;;;;2.88;0.68;;;21.30;45.80;;;;;;5095121;28;20492;-61
2021/03/27 07:32:46;;;;;;;2.10;1.00;;;21.20;45.70;;;;;;5082296;28;20070;-52
2021/03/27 07:35:14;;;;;;;1.00;0.63;;;21.20;45.80;;;;;;5093811;28;20016;-60
2021/03/27 07:37:53;;;;;;;2.78;0.60;;;21.20;45.70;;;;;;5080433;28;20389;-63
2021/03/27 07:40:56;;;;;;;3.83;0.88;;;21.20;45.80;;;;;;5073905;28;20197;-64
2021/03/27 07:43:41;;;;;;;3.28;0.93;;;21.20;45.50;;;;;;5076038;28;20086;-53
2021/03/27 07:47:01;;;;;;;1.33;0.60;;;21.20;45.70;;;;;;5080528;28;20099;-64
2021/03/27 07:49:49;;;;;;;1.05;0.55;;;21.20;45.60;;;;;;5007187;28;20131;-66
2021/03/27 07:52:41;;;;;;;3.63;0.70;;;21.20;45.50;;;;;;5089506;28;20044;-63
2021/03/27 07:55:18;;;;;;;;;;;21.20;45.30;;;;;;5082159;28;20454;-67
2021/03/27 07:58:21;;;;;;;2.17;0.90;;;21.20;45.20;;;;;;5080001;28;19916;-65
2021/03/27 08:01:02;;;;;;;2.28;0.70;;;21.20;45.20;;;;;;5087403;28;20029;-61
2021/03/27 08:03:36;;;;;;;5.40;0.82;;;21.20;45.20;;;;;;5076384;28;20082;-65
2021/03/27 08:06:04;;;;;;;1.98;0.80;;;21.20;45.10;;;;;;5091425;28;20102;-64
2021/03/27 08:08:37;;;;;;;3.50;0.70;;;21.20;45.20;;;;;;5092806;28;20048;-64
2021/03/27 08:11:20;;;;;;;4.15;0.65;;;21.20;45.20;;;;;;5081494;28;20032;-62
2021/03/27 08:14:12;;;;;;;4.47;1.27;;;21.20;45.10;;;;;;5073160;28;20385;-61
2021/03/27 08:17:13;;;;;;;4.05;0.65;;;21.20;45.10;;;;;;5036134;28;20032;-61
2021/03/27 08:20:13;;;;;;;5.15;1.38;;;21.20;45.00;;;;;;5022529;28;20043;-64
2021/03/27 08:23:24;;;;;;;2.15;0.60;;;21.20;45.00;;;;;;5081364;28;20043;-62
2021/03/27 08:26:14;;;;;;;1.15;0.70;;;21.20;45.10;;;;;;5060071;28;20126;-55
2021/03/27 08:28:55;;;;;;;2.03;0.60;;;21.30;45.00;;;;;;5073440;28;20029;-62
2021/03/27 08:32:01;;;;;;;3.25;0.70;;;21.20;45.00;;;;;;5071933;28;20052;-60
2021/03/27 08:34:55;;;;;;;1.05;0.70;;;21.30;45.50;;;;;;5073738;28;20035;-56
2021/03/27 08:37:54;;;;;;;5.03;0.90;;;21.40;45.70;;;;;;5079397;28;20029;-51
2021/03/27 08:40:38;;;;;;;11.68;1.48;;;21.40;45.70;;;;;;5082179;28;20153;-61
2021/03/27 08:43:38;;;;;;;3.65;0.90;;;21.40;45.60;;;;;;5088329;28;20063;-63
2021/03/27 08:46:15;;;;;;;9.43;1.08;;;21.40;45.20;;;;;;5090999;28;20024;-63
2021/03/27 08:49:08;;;;;;;7.82;0.98;;;21.40;43.10;;;;;;5091936;28;20032;-54
2021/03/27 08:52:00;;;;;;;11.00;0.98;;;21.30;42.30;;;;;;5088441;28;20028;-58
2021/03/27 08:54:59;;;;;;;6.88;0.68;;;21.30;41.60;;;;;;5068105;28;20044;-60
2021/03/27 08:57:56;;;;;;;4.68;1.00;;;21.20;42.10;;;;;;5082339;28;20063;-57
2021/03/27 09:00:58;;;;;;;3.92;0.75;;;21.20;42.80;;;;;;5072143;28;20119;-63
2021/03/27 09:03:52;;;;;;;7.55;0.80;;;21.20;43.30;;;;;;5090707;28;20055;-59
2021/03/27 09:06:45;;;;;;;3.40;0.55;;;21.10;38.80;;;;;;5075016;28;20209;-60
2021/03/27 09:09:13;;;;;;;7.28;0.80;;;21.10;41.40;;;;;;5091934;28;20039;-55
2021/03/27 09:12:02;;;;;;;4.15;0.63;;;21.10;42.40;;;;;;5091713;28;20153;-56
2021/03/27 09:15:04;;;;;;;3.80;0.73;;;21.10;42.60;;;;;;5074516;28;20082;-59
2021/03/27 09:17:35;;;;;;;6.85;0.77;;;21.20;43.10;;;;;;5083690;28;20043;-60
2021/03/27 09:20:37;;;;;;;1.88;0.80;;;21.20;43.20;;;;;;5089807;28;20024;-57
2021/03/27 09:23:11;;;;;;;5.07;0.52;;;21.20;43.40;;;;;;5072288;28;20024;-58
2021/03/27 09:26:08;;;;;;;5.10;0.75;;;21.20;43.40;;;;;;5083836;28;20503;-55
2021/03/27 09:28:49;;;;;;;3.85;0.70;;;21.20;43.40;;;;;;5073316;28;20107;-59
2021/03/27 09:31:36;;;;;;;4.10;0.70;;;21.20;43.50;;;;;;5084463;28;20509;-60
2021/03/27 09:34:17;;;;;;;5.55;0.70;;;21.20;43.70;;;;;;5080300;28;20040;-52
2021/03/27 09:36:55;;;;;;;4.25;0.60;;;21.20;43.70;;;;;;5090278;28;20439;-60
2021/03/27 09:39:44;;;;;;;6.45;0.85;;;21.20;43.70;;;;;;5090984;28;20086;-59
2021/03/27 09:42:50;;;;;;;7.03;1.27;;;21.20;43.40;;;;;;5082454;28;20588;-59
2021/03/27 09:45:56;;;;;;;4.63;0.73;;;21.30;43.70;;;;;;5084625;28;20032;-59
2021/03/27 09:48:29;;;;;;;2.83;0.63;;;21.30;43.50;;;;;;5078790;28;20021;-58
2021/03/27 09:51:26;;;;;;;3.42;0.70;;;21.30;43.50;;;;;;5073082;28;20031;-50
2021/03/27 09:54:20;;;;;;;3.15;0.80;;;21.20;41.60;;;;;;5072278;28;20070;-61
2021/03/27 09:57:03;;;;;;;3.08;0.40;;;21.20;41.40;;;;;;5074336;28;20462;-58
2021/03/27 09:59:57;;;;;;;8.30;0.50;;;21.20;42.20;;;;;;5075807;28;20112;-60
2021/03/27 10:02:37;;;;;;;3.35;0.55;;;21.20;42.80;;;;;;5079837;28;20036;-61
2021/03/27 10:05:17;;;;;;;4.15;0.80;;;21.20;42.80;;;;;;5083536;28;20025;-62
2021/03/27 10:07:49;;;;;;;6.40;0.60;;;21.20;42.90;;;;;;5072933;28;20397;-63
2021/03/27 10:10:18;;;;;;;2.30;0.65;;;21.30;42.80;;;;;;5071945;28;20032;-54
2021/03/27 10:13:18;;;;;;;8.95;1.00;;;21.30;42.70;;;;;;5072481;28;20032;-55
2021/03/27 10:15:54;;;;;;;12.35;0.80;;;21.20;42.90;;;;;;5077606;28;20032;-64
2021/03/27 10:18:56;;;;;;;9.85;0.77;;;21.10;42.70;;;;;;5089534;28;20036;-62
2021/03/27 10:21:47;;;;;;;2.90;0.63;;;21.10;43.00;;;;;;5086959;28;20490;-59
2021/03/27 10:24:31;;;;;;;2.35;0.55;;;21.00;43.00;;;;;;5074313;28;20037;-62
2021/03/27 10:27:06;;;;;;;2.67;0.80;;;21.00;43.00;;;;;;5087587;28;20028;-64
2021/03/27 10:29:47;;;;;;;7.03;0.90;;;21.00;43.00;;;;;;5071549;28;20024;-52
2021/03/27 10:32:30;;;;;;;3.60;0.52;;;21.00;42.90;;;;;;5077673;28;20036;-66
2021/03/27 10:35:02;;;;;;;3.30;0.60;;;21.00;43.00;;;;;;5091131;28;20110;-55
2021/03/27 10:38:00;;;;;;;2.65;0.65;;;21.00;42.90;;;;;;5075558;28;20036;-66
2021/03/27 10:40:53;;;;;;;5.30;0.60;;;21.00;42.80;;;;;;5087191;28;20032;-63
2021/03/27 10:43:30;;;;;;;3.53;0.43;;;20.90;42.80;;;;;;5073361;28;20078;-64
2021/03/27 10:46:03;;;;;;;4.07;0.60;;;20.90;42.90;;;;;;5077838;28;20095;-64
2021/03/27 10:48:40;;;;;;;3.50;0.70;;;20.90;42.80;;;;;;5090495;28;20033;-63
2021/03/27 10:51:43;;;;;;;3.35;0.60;;;20.90;42.90;;;;;;5075120;28;20472;-52
2021/03/27 10:54:43;;;;;;;2.95;0.77;;;20.90;42.90;;;;;;5079339;28;20111;-65
2021/03/27 10:57:33;;;;;;;1.83;0.40;;;20.90;43.00;;;;;;5070641;28;20025;-66
2021/03/27 10:59:58;;;;;;;1.33;0.80;;;20.90;43.00;;;;;;5083236;28;20024;-67
2021/03/27 11:02:55;;;;;;;1.40;0.50;;;20.90;43.10;;;;;;5081093;28;20040;-65
2021/03/27 11:05:28;;;;;;;2.72;0.47;;;20.90;43.00;;;;;;5089173;28;20028;-61
2021/03/27 11:08:11;;;;;;;1.75;0.35;;;20.90;43.00;;;;;;5084677;28;20044;-65
2021/03/27 11:11:05;;;;;;;2.78;0.40;;;20.80;42.90;;;;;;5083878;28;20036;-55
2021/03/27 11:14:04;;;;;;;1.58;0.50;;;20.80;42.90;;;;;;5070088;28;20052;-66
2021/03/27 11:17:09;;;;;;;2.25;0.70;;;20.80;42.90;;;;;;5089849;28;20181;-65
2021/03/27 11:20:07;;;;;;;3.50;0.57;;;20.80;42.90;;;;;;5057901;28;20040;-57
2021/03/27 11:22:55;;;;;;;2.50;0.50;;;20.80;42.90;;;;;;5076108;28;20041;-66
2021/03/27 11:25:41;;;;;;;1.83;0.50;;;20.80;42.80;;;;;;5073593;28;20206;-66
2021/03/27 11:28:52;;;;;;;3.10;0.40;;;20.80;42.90;;;;;;5024116;28;20098;-66
2021/03/27 11:31:42;;;;;;;2.15;0.50;;;20.80;42.70;;;;;;5030705;28;20486;-65
2021/03/27 11:34:14;;;;;;;1.48;0.60;;;20.80;42.80;;;;;;5003303;28;20546;-58
2021/03/27 11:37:16;;;;;;;2.83;0.73;;;20.80;42.70;;;;;;5021164;28;20080;-63
2021/03/27 11:40:12;;;;;;;1.80;0.50;;;20.80;42.70;;;;;;5027049;28;20172;-55
2021/03/27 11:42:53;;;;;;;0.77;0.38;;;20.80;42.70;;;;;;5007403;28;20042;-64
2021/03/27 11:45:19;;;;;;;1.70;0.40;;;20.80;42.80;;;;;;5014994;28;20565;-63
2021/03/27 11:47:59;;;;;;;1.17;0.40;;;20.80;42.70;;;;;;5031394;28;20205;-62
2021/03/27 11:50:43;;;;;;;1.55;0.50;;;20.80;42.70;;;;;;5018349;28;20199;-52
2021/03/27 11:53:27;;;;;;;0.73;0.22;;;20.80;42.70;;;;;;5020812;28;20033;-64
2021/03/27 11:56:20;;;;;;;1.15;0.40;;;20.70;42.70;;;;;;5012027;28;20036;-64
2021/03/27 12:02:19;;;;;;;1.02;0.47;;;20.70;42.60;;;;;;5043010;28;20081;-65
2021/03/27 12:04:57;;;;;;;2.03;0.30;;;20.70;42.50;;;;;;5042811;28;20435;-65
2021/03/27 12:07:49;;;;;;;0.50;0.35;;;20.70;42.50;;;;;;5082051;28;20051;-55
2021/03/27 12:10:30;;;;;;;0.52;0.30;;;20.70;42.50;;;;;;5064750;28;20036;-64
2021/03/27 12:13:12;;;;;;;0.80;0.30;;;20.70;42.40;;;;;;5080846;28;20068;-68
2021/03/27 12:15:46;;;;;;;1.10;0.45;;;20.70;42.40;;;;;;5078303;28;20354;-47
2021/03/27 12:18:15;;;;;;;0.73;0.40;;;20.70;42.40;;;;;;5089995;28;20575;-52
2021/03/27 12:20:55;;;;;;;3.05;0.57;;;20.70;42.50;;;;;;5073635;28;20082;-65
2021/03/27 12:23:33;;;;;;;1.55;0.38;;;20.70;42.40;;;;;;5078968;28;20036;-60
2021/03/27 12:26:14;;;;;;;0.77;0.40;;;20.70;42.50;;;;;;5089505;28;20024;-65
2021/03/27 12:28:52;;;;;;;1.63;0.30;;;20.70;42.40;;;;;;5088783;28;20036;-60
2021/03/27 12:31:20;;;;;;;1.33;0.57;;;20.70;42.60;;;;;;5078184;28;20035;-64
2021/03/27 12:34:07;;;;;;;0.95;0.40;;;20.70;42.70;;;;;;5088503;28;20404;-66
2021/03/27 12:36:32;;;;;;;4.15;0.57;;;20.70;42.90;;;;;;5092996;28;20024;-65
2021/03/27 12:39:25;;;;;;;1.83;0.50;;;20.70;43.10;;;;;;5080923;28;20526;-65
2021/03/27 12:41:53;;;;;;;3.08;0.65;;;20.80;43.20;;;;;;5079843;28;20038;-53
2021/03/27 12:44:35;;;;;;;4.38;0.50;;;20.80;43.50;;;;;;5072109;28;20045;-64
2021/03/27 12:47:39;;;;;;;4.03;0.50;;;20.80;43.60;;;;;;5076087;28;20080;-62
2021/03/27 12:50:09;;;;;;;2.40;0.60;;;20.90;43.80;;;;;;5085546;28;20036;-57
2021/03/27 12:52:57;;;;;;;2.65;0.50;;;20.90;43.50;;;;;;5088798;28;20405;-63
2021/03/27 12:55:43;;;;;;;2.05;0.68;;;20.90;43.90;;;;;;5086531;28;20024;-66
2021/03/27 12:58:39;;;;;;;4.47;0.63;;;20.90;43.90;;;;;;5077972;28;20039;-49
2021/03/27 13:01:47;;;;;;;5.47;0.50;;;21.00;43.70;;;;;;5072271;28;20106;-53
2021/03/27 13:04:40;;;;;;;5.32;0.80;;;21.00;43.70;;;;;;5080051;28;20064;-52
2021/03/27 13:07:35;;;;;;;4.03;0.80;;;21.00;43.30;;;;;;5079514;28;20067;-51
2021/03/27 13:10:30;;;;;;;4.55;0.50;;;21.00;42.40;;;;;;5088068;28;20032;-52
2021/03/27 13:13:06;;;;;;;3.25;0.60;;;21.00;42.30;;;;;;5091704;28;20028;-49
2021/03/27 13:15:51;;;;;;;4.63;0.50;;;21.10;42.70;;;;;;5089736;28;20119;-51
2021/03/27 13:18:25;;;;;;;3.33;0.57;;;21.10;41.30;;;;;;5090276;28;20035;-48
2021/03/27 13:21:04;;;;;;;3.10;0.50;;;21.10;40.30;;;;;;5072254;28;20051;-51
2021/03/27 13:23:58;;;;;;;2.58;0.63;;;21.10;39.90;;;;;;5080474;28;20043;-49
2021/03/27 13:26:30;;;;;;;2.53;0.60;;;21.10;39.10;;;;;;5091013;28;20114;-51
2021/03/27 13:29:34;;;;;;;1.95;0.50;;;21.10;38.50;;;;;;5086422;28;20028;-51
2021/03/27 13:32:16;;;;;;;2.05;0.50;;;21.10;38.10;;;;;;5091882;28;20078;-48
2021/03/27 13:35:14;;;;;;;3.70;0.75;;;21.10;36.50;;;;;;5080559;28;20066;-49
2021/03/27 13:37:56;;;;;;;9.95;0.82;;;21.10;36.30;;;;;;5073261;28;20119;-52
2021/03/27 13:40:29;;;;;;;6.60;0.85;;;21.10;35.60;;;;;;5073666;28;20024;-50
2021/03/27 13:43:14;;;;;;;4.72;0.73;;;21.10;35.80;;;;;;5081455;28;20039;-45
2021/03/27 13:45:39;;;;;;;6.43;0.80;;;21.20;36.40;;;;;;5091348;28;20047;-48
2021/03/27 13:48:15;;;;;;;2.78;0.75;;;21.20;36.20;;;;;;5091288;28;20024;-51
2021/03/27 13:50:44;;;;;;;5.30;0.80;;;21.20;35.80;;;;;;5071677;28;20076;-55
2021/03/27 13:53:15;;;;;;;1.52;0.93;;;21.20;35.30;;;;;;5075327;28;20036;-53
2021/03/27 13:56:01;;;;;;;1.98;0.63;;;21.20;34.10;;;;;;5083001;28;20024;-47
2021/03/27 13:58:49;;;;;;;3.42;0.93;;;21.20;34.20;;;;;;5083189;28;20248;-49
2021/03/27 14:01:27;;;;;;;2.20;0.60;;;21.30;34.60;;;;;;5089939;28;20023;-49
2021/03/27 14:03:53;;;;;;;5.45;0.75;;;21.30;34.30;;;;;;5088543;28;20054;-45
2021/03/27 14:06:21;;;;;;;3.42;0.60;;;21.30;33.70;;;;;;5076424;28;20113;-47
2021/03/27 14:09:17;;;;;;;5.13;0.77;;;21.30;33.60;;;;;;5080977;28;20044;-49
2021/03/27 14:12:00;;;;;;;3.53;0.68;;;21.30;32.80;;;;;;5090873;28;20031;-46
2021/03/27 14:14:32;;;;;;;3.55;0.80;;;21.30;33.30;;;;;;5090319;28;20032;-53
2021/03/27 14:17:07;;;;;;;3.45;0.60;;;21.30;33.50;;;;;;5086114;28;20427;-49
2021/03/27 14:19:45;;;;;;;3.85;0.98;;;21.30;33.10;;;;;;5082072;28;20060;-48